sensor_id;sensor_type;location;lat;lon;timestamp;P1;durP1;ratioP1;P2;durP2;ratioP2
60488;SDS011;46331;49.252;8.904;2024-02-15T00:00:13;11.73;;;5.30;;
60488;SDS011;46331;49.252;8.904;2024-02-15T00:00:55;10.45;;;4.38;;
60488;SDS011;46331;49.252;8.904;2024-02-15T00:01:38;9.20;;;4.65;;
60488;SDS011;46331;49.252;8.904;2024-02-15T00:02:18;9.50;;;5.20;;
60488;SDS011;46331;49.252;8.904;2024-02-15T00:02:59;9.40;;;5.03;;
60488;SDS011;46331;49.252;8.904;2024-02-15T00:03:39;11.73;;;4.57;;
60488;SDS011;46331;49.252;8.904;2024-02-15T00:04:20;12.30;;;5.70;;
60488;SDS011;46331;49.252;8.904;2024-02-15T00:05:01;11.95;;;4.70;;
60488;SDS011;46331;49.252;8.904;2024-02-15T00:05:43;10.57;;;4.43;;
60488;SDS011;46331;49.252;8.904;2024-02-15T00:06:24;9.23;;;4.60;;
60488;SDS011;46331;49.252;8.904;2024-02-15T00:07:05;10.30;;;4.63;;
60488;SDS011;46331;49.252;8.904;2024-02-15T00:07:45;10.95;;;4.32;;
60488;SDS011;46331;49.252;8.904;2024-02-15T00:08:29;9.23;;;4.67;;
60488;SDS011;46331;49.252;8.904;2024-02-15T00:09:10;9.95;;;4.13;;
60488;SDS011;46331;49.252;8.904;2024-02-15T00:09:50;10.25;;;4.72;;
60488;SDS011;46331;49.252;8.904;2024-02-15T00:10:31;8.75;;;4.65;;
60488;SDS011;46331;49.252;8.904;2024-02-15T00:11:12;11.07;;;4.63;;
60488;SDS011;46331;49.252;8.904;2024-02-15T00:11:54;10.52;;;4.75;;
60488;SDS011;46331;49.252;8.904;2024-02-15T00:12:34;10.27;;;4.77;;
60488;SDS011;46331;49.252;8.904;2024-02-15T00:13:15;10.10;;;4.95;;
60488;SDS011;46331;49.252;8.904;2024-02-15T00:13:56;11.50;;;4.93;;
60488;SDS011;46331;49.252;8.904;2024-02-15T00:14:37;9.90;;;4.63;;
60488;SDS011;46331;49.252;8.904;2024-02-15T00:15:18;9.88;;;4.88;;
60488;SDS011;46331;49.252;8.904;2024-02-15T00:15:59;8.77;;;4.38;;
60488;SDS011;46331;49.252;8.904;2024-02-15T00:16:41;8.63;;;4.55;;
60488;SDS011;46331;49.252;8.904;2024-02-15T00:17:21;9.30;;;4.37;;
60488;SDS011;46331;49.252;8.904;2024-02-15T00:18:02;9.95;;;4.57;;
60488;SDS011;46331;49.252;8.904;2024-02-15T00:18:43;9.10;;;4.13;;
60488;SDS011;46331;49.252;8.904;2024-02-15T00:19:25;8.77;;;4.05;;
60488;SDS011;46331;49.252;8.904;2024-02-15T00:20:05;7.90;;;3.73;;
60488;SDS011;46331;49.252;8.904;2024-02-15T00:20:49;8.05;;;3.90;;
60488;SDS011;46331;49.252;8.904;2024-02-15T00:21:30;6.40;;;3.13;;
60488;SDS011;46331;49.252;8.904;2024-02-15T00:22:10;6.55;;;3.38;;
60488;SDS011;46331;49.252;8.904;2024-02-15T00:22:51;6.93;;;3.33;;
60488;SDS011;46331;49.252;8.904;2024-02-15T00:23:32;8.23;;;3.55;;
60488;SDS011;46331;49.252;8.904;2024-02-15T00:24:13;6.57;;;3.30;;
60488;SDS011;46331;49.252;8.904;2024-02-15T00:24:54;7.70;;;3.40;;
60488;SDS011;46331;49.252;8.904;2024-02-15T00:25:35;7.80;;;3.53;;
60488;SDS011;46331;49.252;8.904;2024-02-15T00:26:16;7.03;;;3.50;;
60488;SDS011;46331;49.252;8.904;2024-02-15T00:26:56;6.63;;;3.60;;
60488;SDS011;46331;49.252;8.904;2024-02-15T00:27:37;6.88;;;2.92;;
60488;SDS011;46331;49.252;8.904;2024-02-15T00:28:18;6.17;;;3.20;;
60488;SDS011;46331;49.252;8.904;2024-02-15T00:28:58;6.25;;;2.90;;
60488;SDS011;46331;49.252;8.904;2024-02-15T00:29:39;5.87;;;2.97;;
60488;SDS011;46331;49.252;8.904;2024-02-15T00:30:20;7.28;;;3.15;;
60488;SDS011;46331;49.252;8.904;2024-02-15T00:31:01;5.65;;;2.90;;
60488;SDS011;46331;49.252;8.904;2024-02-15T00:31:42;5.93;;;2.75;;
60488;SDS011;46331;49.252;8.904;2024-02-15T00:32:23;6.30;;;2.50;;
60488;SDS011;46331;49.252;8.904;2024-02-15T00:33:04;5.63;;;2.53;;
60488;SDS011;46331;49.252;8.904;2024-02-15T00:33:45;6.70;;;3.25;;
60488;SDS011;46331;49.252;8.904;2024-02-15T00:34:26;5.68;;;2.80;;
60488;SDS011;46331;49.252;8.904;2024-02-15T00:35:07;7.47;;;2.70;;
60488;SDS011;46331;49.252;8.904;2024-02-15T00:35:49;6.30;;;2.60;;
60488;SDS011;46331;49.252;8.904;2024-02-15T00:36:32;5.15;;;2.50;;
60488;SDS011;46331;49.252;8.904;2024-02-15T00:37:13;6.00;;;2.42;;
60488;SDS011;46331;49.252;8.904;2024-02-15T00:37:54;6.97;;;2.75;;
60488;SDS011;46331;49.252;8.904;2024-02-15T00:38:34;5.53;;;2.60;;
60488;SDS011;46331;49.252;8.904;2024-02-15T00:39:15;5.35;;;2.85;;
60488;SDS011;46331;49.252;8.904;2024-02-15T00:39:58;7.53;;;3.10;;
60488;SDS011;46331;49.252;8.904;2024-02-15T00:40:38;6.13;;;2.70;;
60488;SDS011;46331;49.252;8.904;2024-02-15T00:41:20;6.15;;;3.08;;
60488;SDS011;46331;49.252;8.904;2024-02-15T00:42:01;8.63;;;4.30;;
60488;SDS011;46331;49.252;8.904;2024-02-15T00:42:42;9.73;;;5.07;;
60488;SDS011;46331;49.252;8.904;2024-02-15T00:43:22;18.17;;;8.25;;
60488;SDS011;46331;49.252;8.904;2024-02-15T00:44:03;14.90;;;7.73;;
60488;SDS011;46331;49.252;8.904;2024-02-15T00:44:44;15.05;;;7.28;;
60488;SDS011;46331;49.252;8.904;2024-02-15T00:45:24;13.00;;;5.80;;
60488;SDS011;46331;49.252;8.904;2024-02-15T00:46:05;9.77;;;4.70;;
60488;SDS011;46331;49.252;8.904;2024-02-15T00:46:45;8.20;;;4.00;;
60488;SDS011;46331;49.252;8.904;2024-02-15T00:47:27;8.13;;;3.55;;
60488;SDS011;46331;49.252;8.904;2024-02-15T00:48:08;9.93;;;3.50;;
60488;SDS011;46331;49.252;8.904;2024-02-15T00:48:50;6.13;;;3.25;;
60488;SDS011;46331;49.252;8.904;2024-02-15T00:49:30;7.33;;;3.37;;
60488;SDS011;46331;49.252;8.904;2024-02-15T00:50:12;6.20;;;3.30;;
60488;SDS011;46331;49.252;8.904;2024-02-15T00:50:53;7.47;;;3.05;;
60488;SDS011;46331;49.252;8.904;2024-02-15T00:51:34;6.32;;;2.85;;
60488;SDS011;46331;49.252;8.904;2024-02-15T00:52:16;6.40;;;3.30;;
60488;SDS011;46331;49.252;8.904;2024-02-15T00:53:00;7.53;;;3.53;;
60488;SDS011;46331;49.252;8.904;2024-02-15T00:53:40;6.68;;;3.13;;
60488;SDS011;46331;49.252;8.904;2024-02-15T00:54:21;7.10;;;3.53;;
60488;SDS011;46331;49.252;8.904;2024-02-15T00:55:02;8.07;;;3.00;;
60488;SDS011;46331;49.252;8.904;2024-02-15T00:55:44;6.40;;;2.78;;
60488;SDS011;46331;49.252;8.904;2024-02-15T00:56:24;6.93;;;3.17;;
60488;SDS011;46331;49.252;8.904;2024-02-15T00:57:05;6.95;;;3.28;;
60488;SDS011;46331;49.252;8.904;2024-02-15T00:57:45;6.37;;;3.20;;
60488;SDS011;46331;49.252;8.904;2024-02-15T00:58:26;7.22;;;3.38;;
60488;SDS011;46331;49.252;8.904;2024-02-15T00:59:07;5.87;;;3.00;;
60488;SDS011;46331;49.252;8.904;2024-02-15T00:59:47;6.13;;;2.83;;
60488;SDS011;46331;49.252;8.904;2024-02-15T01:00:28;6.15;;;2.90;;
60488;SDS011;46331;49.252;8.904;2024-02-15T01:01:09;5.20;;;2.73;;
60488;SDS011;46331;49.252;8.904;2024-02-15T01:01:50;6.70;;;2.75;;
60488;SDS011;46331;49.252;8.904;2024-02-15T01:02:33;5.63;;;2.63;;
60488;SDS011;46331;49.252;8.904;2024-02-15T01:03:15;8.70;;;3.47;;
60488;SDS011;46331;49.252;8.904;2024-02-15T01:03:55;10.07;;;4.55;;
60488;SDS011;46331;49.252;8.904;2024-02-15T01:04:36;14.35;;;6.13;;
60488;SDS011;46331;49.252;8.904;2024-02-15T01:05:17;15.60;;;7.47;;
60488;SDS011;46331;49.252;8.904;2024-02-15T01:05:58;21.50;;;10.18;;
60488;SDS011;46331;49.252;8.904;2024-02-15T01:06:39;29.30;;;11.47;;
60488;SDS011;46331;49.252;8.904;2024-02-15T01:07:19;18.50;;;9.27;;
60488;SDS011;46331;49.252;8.904;2024-02-15T01:08:00;15.60;;;7.23;;
60488;SDS011;46331;49.252;8.904;2024-02-15T01:08:40;16.40;;;7.13;;
60488;SDS011;46331;49.252;8.904;2024-02-15T01:09:21;11.37;;;5.83;;
60488;SDS011;46331;49.252;8.904;2024-02-15T01:10:03;12.13;;;5.45;;
60488;SDS011;46331;49.252;8.904;2024-02-15T01:10:44;11.23;;;5.32;;
60488;SDS011;46331;49.252;8.904;2024-02-15T01:11:26;8.18;;;4.20;;
60488;SDS011;46331;49.252;8.904;2024-02-15T01:12:08;7.53;;;3.78;;
60488;SDS011;46331;49.252;8.904;2024-02-15T01:12:50;8.40;;;3.92;;
60488;SDS011;46331;49.252;8.904;2024-02-15T01:13:31;6.83;;;3.37;;
60488;SDS011;46331;49.252;8.904;2024-02-15T01:14:11;6.07;;;2.53;;
60488;SDS011;46331;49.252;8.904;2024-02-15T01:14:52;7.23;;;3.00;;
60488;SDS011;46331;49.252;8.904;2024-02-15T01:15:32;6.70;;;3.03;;
60488;SDS011;46331;49.252;8.904;2024-02-15T01:16:13;6.00;;;2.77;;
60488;SDS011;46331;49.252;8.904;2024-02-15T01:16:53;5.68;;;2.55;;
60488;SDS011;46331;49.252;8.904;2024-02-15T01:17:34;5.60;;;2.90;;
60488;SDS011;46331;49.252;8.904;2024-02-15T01:18:15;6.32;;;2.47;;
60488;SDS011;46331;49.252;8.904;2024-02-15T01:18:56;6.23;;;2.50;;
60488;SDS011;46331;49.252;8.904;2024-02-15T01:19:36;5.95;;;2.28;;
60488;SDS011;46331;49.252;8.904;2024-02-15T01:20:17;6.10;;;2.50;;
60488;SDS011;46331;49.252;8.904;2024-02-15T01:20:58;7.30;;;2.55;;
60488;SDS011;46331;49.252;8.904;2024-02-15T01:21:38;5.83;;;2.50;;
60488;SDS011;46331;49.252;8.904;2024-02-15T01:22:19;5.83;;;2.50;;
60488;SDS011;46331;49.252;8.904;2024-02-15T01:22:59;7.07;;;2.45;;
60488;SDS011;46331;49.252;8.904;2024-02-15T01:23:40;7.53;;;2.93;;
60488;SDS011;46331;49.252;8.904;2024-02-15T01:24:21;5.80;;;2.17;;
60488;SDS011;46331;49.252;8.904;2024-02-15T01:25:02;4.83;;;2.17;;
60488;SDS011;46331;49.252;8.904;2024-02-15T01:25:43;5.87;;;2.30;;
60488;SDS011;46331;49.252;8.904;2024-02-15T01:26:23;5.60;;;2.30;;
60488;SDS011;46331;49.252;8.904;2024-02-15T01:27:04;8.67;;;2.60;;
60488;SDS011;46331;49.252;8.904;2024-02-15T01:27:44;6.57;;;2.85;;
60488;SDS011;46331;49.252;8.904;2024-02-15T01:28:25;6.40;;;2.53;;
60488;SDS011;46331;49.252;8.904;2024-02-15T01:29:05;5.13;;;2.30;;
60488;SDS011;46331;49.252;8.904;2024-02-15T01:29:46;5.20;;;2.20;;
60488;SDS011;46331;49.252;8.904;2024-02-15T01:30:26;5.93;;;2.20;;
60488;SDS011;46331;49.252;8.904;2024-02-15T01:31:09;5.07;;;2.25;;
60488;SDS011;46331;49.252;8.904;2024-02-15T01:31:51;5.95;;;2.15;;
60488;SDS011;46331;49.252;8.904;2024-02-15T01:32:32;6.07;;;2.40;;
60488;SDS011;46331;49.252;8.904;2024-02-15T01:33:12;6.87;;;2.13;;
60488;SDS011;46331;49.252;8.904;2024-02-15T01:33:53;5.33;;;2.40;;
60488;SDS011;46331;49.252;8.904;2024-02-15T01:34:33;5.13;;;2.17;;
60488;SDS011;46331;49.252;8.904;2024-02-15T01:35:14;7.07;;;2.27;;
60488;SDS011;46331;49.252;8.904;2024-02-15T01:35:54;5.00;;;2.20;;
60488;SDS011;46331;49.252;8.904;2024-02-15T01:36:36;5.38;;;2.13;;
60488;SDS011;46331;49.252;8.904;2024-02-15T01:37:17;5.45;;;2.35;;
60488;SDS011;46331;49.252;8.904;2024-02-15T01:37:57;4.70;;;2.07;;
60488;SDS011;46331;49.252;8.904;2024-02-15T01:38:38;5.10;;;1.98;;
60488;SDS011;46331;49.252;8.904;2024-02-15T01:39:18;6.03;;;2.33;;
60488;SDS011;46331;49.252;8.904;2024-02-15T01:39:59;5.03;;;2.20;;
60488;SDS011;46331;49.252;8.904;2024-02-15T01:40:40;5.80;;;2.23;;
60488;SDS011;46331;49.252;8.904;2024-02-15T01:41:20;5.47;;;2.10;;
60488;SDS011;46331;49.252;8.904;2024-02-15T01:42:01;4.47;;;2.05;;
60488;SDS011;46331;49.252;8.904;2024-02-15T01:42:46;7.82;;;2.00;;
60488;SDS011;46331;49.252;8.904;2024-02-15T01:43:29;4.85;;;2.38;;
60488;SDS011;46331;49.252;8.904;2024-02-15T01:44:11;4.80;;;2.10;;
60488;SDS011;46331;49.252;8.904;2024-02-15T01:44:52;6.40;;;2.37;;
60488;SDS011;46331;49.252;8.904;2024-02-15T01:45:33;5.68;;;2.28;;
60488;SDS011;46331;49.252;8.904;2024-02-15T01:46:13;5.53;;;2.00;;
60488;SDS011;46331;49.252;8.904;2024-02-15T01:46:55;5.32;;;2.10;;
60488;SDS011;46331;49.252;8.904;2024-02-15T01:47:36;5.05;;;2.13;;
60488;SDS011;46331;49.252;8.904;2024-02-15T01:48:16;5.27;;;2.47;;
60488;SDS011;46331;49.252;8.904;2024-02-15T01:48:57;5.00;;;2.30;;
60488;SDS011;46331;49.252;8.904;2024-02-15T01:49:38;6.93;;;2.17;;
60488;SDS011;46331;49.252;8.904;2024-02-15T01:50:18;5.60;;;2.30;;
60488;SDS011;46331;49.252;8.904;2024-02-15T01:51:02;5.03;;;1.92;;
60488;SDS011;46331;49.252;8.904;2024-02-15T01:51:44;10.25;;;2.78;;
60488;SDS011;46331;49.252;8.904;2024-02-15T01:52:25;5.88;;;2.15;;
60488;SDS011;46331;49.252;8.904;2024-02-15T01:53:07;5.30;;;2.03;;
60488;SDS011;46331;49.252;8.904;2024-02-15T01:53:48;5.43;;;2.08;;
60488;SDS011;46331;49.252;8.904;2024-02-15T01:54:29;5.45;;;2.10;;
60488;SDS011;46331;49.252;8.904;2024-02-15T01:55:09;8.57;;;2.50;;
60488;SDS011;46331;49.252;8.904;2024-02-15T01:55:51;6.32;;;2.05;;
60488;SDS011;46331;49.252;8.904;2024-02-15T01:56:33;5.28;;;2.00;;
60488;SDS011;46331;49.252;8.904;2024-02-15T01:57:15;5.22;;;2.20;;
60488;SDS011;46331;49.252;8.904;2024-02-15T01:57:56;4.93;;;1.80;;
60488;SDS011;46331;49.252;8.904;2024-02-15T01:58:37;5.17;;;2.10;;
60488;SDS011;46331;49.252;8.904;2024-02-15T01:59:21;6.25;;;2.22;;
60488;SDS011;46331;49.252;8.904;2024-02-15T02:00:04;4.80;;;1.75;;
60488;SDS011;46331;49.252;8.904;2024-02-15T02:01:00;5.00;;;2.03;;
60488;SDS011;46331;49.252;8.904;2024-02-15T02:01:44;8.55;;;1.95;;
60488;SDS011;46331;49.252;8.904;2024-02-15T02:02:25;4.20;;;1.80;;
60488;SDS011;46331;49.252;8.904;2024-02-15T02:03:12;5.67;;;2.13;;
60488;SDS011;46331;49.252;8.904;2024-02-15T02:03:54;6.28;;;1.95;;
60488;SDS011;46331;49.252;8.904;2024-02-15T02:04:37;4.35;;;1.98;;
60488;SDS011;46331;49.252;8.904;2024-02-15T02:05:18;8.77;;;2.22;;
60488;SDS011;46331;49.252;8.904;2024-02-15T02:05:58;6.60;;;2.40;;
60488;SDS011;46331;49.252;8.904;2024-02-15T02:06:40;5.23;;;2.20;;
60488;SDS011;46331;49.252;8.904;2024-02-15T02:07:23;6.03;;;2.50;;
60488;SDS011;46331;49.252;8.904;2024-02-15T02:08:04;5.20;;;2.05;;
60488;SDS011;46331;49.252;8.904;2024-02-15T02:08:49;5.15;;;2.28;;
60488;SDS011;46331;49.252;8.904;2024-02-15T02:09:30;4.87;;;2.20;;
60488;SDS011;46331;49.252;8.904;2024-02-15T02:10:11;6.73;;;2.30;;
60488;SDS011;46331;49.252;8.904;2024-02-15T02:10:52;5.97;;;2.30;;
60488;SDS011;46331;49.252;8.904;2024-02-15T02:11:33;5.72;;;2.22;;
60488;SDS011;46331;49.252;8.904;2024-02-15T02:12:14;5.25;;;2.20;;
60488;SDS011;46331;49.252;8.904;2024-02-15T02:12:55;5.72;;;2.25;;
60488;SDS011;46331;49.252;8.904;2024-02-15T02:13:36;5.53;;;2.40;;
60488;SDS011;46331;49.252;8.904;2024-02-15T02:14:16;5.00;;;2.13;;
60488;SDS011;46331;49.252;8.904;2024-02-15T02:14:57;7.37;;;2.40;;
60488;SDS011;46331;49.252;8.904;2024-02-15T02:15:37;5.83;;;2.00;;
60488;SDS011;46331;49.252;8.904;2024-02-15T02:16:28;6.00;;;2.27;;
60488;SDS011;46331;49.252;8.904;2024-02-15T02:17:55;6.75;;;2.35;;
60488;SDS011;46331;49.252;8.904;2024-02-15T02:18:36;13.50;;;3.77;;
60488;SDS011;46331;49.252;8.904;2024-02-15T02:19:16;6.53;;;2.40;;
60488;SDS011;46331;49.252;8.904;2024-02-15T02:19:58;8.18;;;3.13;;
60488;SDS011;46331;49.252;8.904;2024-02-15T02:20:38;6.50;;;2.83;;
60488;SDS011;46331;49.252;8.904;2024-02-15T02:21:19;6.85;;;2.83;;
60488;SDS011;46331;49.252;8.904;2024-02-15T02:22:00;6.35;;;2.50;;
60488;SDS011;46331;49.252;8.904;2024-02-15T02:22:41;6.80;;;2.40;;
60488;SDS011;46331;49.252;8.904;2024-02-15T02:23:26;6.15;;;2.50;;
60488;SDS011;46331;49.252;8.904;2024-02-15T02:24:19;5.53;;;2.47;;
60488;SDS011;46331;49.252;8.904;2024-02-15T02:25:46;4.95;;;2.28;;
60488;SDS011;46331;49.252;8.904;2024-02-15T02:26:29;5.40;;;2.40;;
60488;SDS011;46331;49.252;8.904;2024-02-15T02:27:11;5.40;;;2.10;;
60488;SDS011;46331;49.252;8.904;2024-02-15T02:27:53;4.85;;;1.98;;
60488;SDS011;46331;49.252;8.904;2024-02-15T02:28:36;5.20;;;2.20;;
60488;SDS011;46331;49.252;8.904;2024-02-15T02:29:16;5.50;;;1.95;;
60488;SDS011;46331;49.252;8.904;2024-02-15T02:29:57;6.07;;;2.20;;
60488;SDS011;46331;49.252;8.904;2024-02-15T02:30:39;6.82;;;2.50;;
60488;SDS011;46331;49.252;8.904;2024-02-15T02:31:22;5.80;;;2.00;;
60488;SDS011;46331;49.252;8.904;2024-02-15T02:32:02;5.33;;;2.00;;
60488;SDS011;46331;49.252;8.904;2024-02-15T02:32:43;6.82;;;2.20;;
60488;SDS011;46331;49.252;8.904;2024-02-15T02:33:23;6.45;;;2.17;;
60488;SDS011;46331;49.252;8.904;2024-02-15T02:34:08;5.43;;;2.03;;
60488;SDS011;46331;49.252;8.904;2024-02-15T02:34:50;6.82;;;2.33;;
60488;SDS011;46331;49.252;8.904;2024-02-15T02:35:32;6.60;;;2.33;;
60488;SDS011;46331;49.252;8.904;2024-02-15T02:36:13;4.68;;;1.90;;
60488;SDS011;46331;49.252;8.904;2024-02-15T02:36:53;5.07;;;2.10;;
60488;SDS011;46331;49.252;8.904;2024-02-15T02:37:34;5.17;;;1.93;;
60488;SDS011;46331;49.252;8.904;2024-02-15T02:38:17;5.75;;;2.65;;
60488;SDS011;46331;49.252;8.904;2024-02-15T02:38:57;4.47;;;1.95;;
60488;SDS011;46331;49.252;8.904;2024-02-15T02:39:40;6.88;;;2.28;;
60488;SDS011;46331;49.252;8.904;2024-02-15T02:40:23;4.90;;;2.05;;
60488;SDS011;46331;49.252;8.904;2024-02-15T02:41:04;6.23;;;2.10;;
60488;SDS011;46331;49.252;8.904;2024-02-15T02:41:44;7.22;;;2.40;;
60488;SDS011;46331;49.252;8.904;2024-02-15T02:42:25;7.03;;;2.27;;
60488;SDS011;46331;49.252;8.904;2024-02-15T02:43:05;6.68;;;2.05;;
60488;SDS011;46331;49.252;8.904;2024-02-15T02:43:46;5.23;;;2.27;;
60488;SDS011;46331;49.252;8.904;2024-02-15T02:44:27;5.18;;;2.03;;
60488;SDS011;46331;49.252;8.904;2024-02-15T02:45:07;7.27;;;2.30;;
60488;SDS011;46331;49.252;8.904;2024-02-15T02:45:48;5.32;;;2.13;;
60488;SDS011;46331;49.252;8.904;2024-02-15T02:46:29;4.90;;;2.00;;
60488;SDS011;46331;49.252;8.904;2024-02-15T02:47:09;5.68;;;2.10;;
60488;SDS011;46331;49.252;8.904;2024-02-15T02:47:50;5.80;;;2.20;;
60488;SDS011;46331;49.252;8.904;2024-02-15T02:48:31;4.90;;;2.28;;
60488;SDS011;46331;49.252;8.904;2024-02-15T02:49:12;5.28;;;2.42;;
60488;SDS011;46331;49.252;8.904;2024-02-15T02:49:52;5.43;;;2.50;;
60488;SDS011;46331;49.252;8.904;2024-02-15T02:50:33;5.10;;;2.00;;
60488;SDS011;46331;49.252;8.904;2024-02-15T02:51:14;5.67;;;2.00;;
60488;SDS011;46331;49.252;8.904;2024-02-15T02:51:55;5.65;;;2.33;;
60488;SDS011;46331;49.252;8.904;2024-02-15T02:52:36;5.87;;;2.20;;
60488;SDS011;46331;49.252;8.904;2024-02-15T02:53:19;5.30;;;2.25;;
60488;SDS011;46331;49.252;8.904;2024-02-15T02:53:59;7.82;;;2.47;;
60488;SDS011;46331;49.252;8.904;2024-02-15T02:54:41;6.55;;;2.15;;
60488;SDS011;46331;49.252;8.904;2024-02-15T02:55:22;4.67;;;2.00;;
60488;SDS011;46331;49.252;8.904;2024-02-15T02:56:02;6.82;;;2.22;;
60488;SDS011;46331;49.252;8.904;2024-02-15T02:56:44;4.72;;;2.13;;
60488;SDS011;46331;49.252;8.904;2024-02-15T02:57:25;5.68;;;2.00;;
60488;SDS011;46331;49.252;8.904;2024-02-15T02:58:06;5.60;;;2.03;;
60488;SDS011;46331;49.252;8.904;2024-02-15T02:58:47;5.57;;;2.20;;
60488;SDS011;46331;49.252;8.904;2024-02-15T02:59:28;5.95;;;2.55;;
60488;SDS011;46331;49.252;8.904;2024-02-15T03:00:09;5.23;;;2.30;;
60488;SDS011;46331;49.252;8.904;2024-02-15T03:00:55;5.65;;;2.30;;
60488;SDS011;46331;49.252;8.904;2024-02-15T03:01:38;4.28;;;2.03;;
60488;SDS011;46331;49.252;8.904;2024-02-15T03:02:19;6.68;;;2.60;;
60488;SDS011;46331;49.252;8.904;2024-02-15T03:03:02;4.72;;;2.10;;
60488;SDS011;46331;49.252;8.904;2024-02-15T03:03:45;4.75;;;2.00;;
60488;SDS011;46331;49.252;8.904;2024-02-15T03:04:26;5.63;;;2.10;;
60488;SDS011;46331;49.252;8.904;2024-02-15T03:05:07;4.38;;;2.10;;
60488;SDS011;46331;49.252;8.904;2024-02-15T03:05:48;6.22;;;2.05;;
60488;SDS011;46331;49.252;8.904;2024-02-15T03:06:29;6.47;;;2.20;;
60488;SDS011;46331;49.252;8.904;2024-02-15T03:07:09;4.68;;;2.08;;
60488;SDS011;46331;49.252;8.904;2024-02-15T03:07:50;5.20;;;1.70;;
60488;SDS011;46331;49.252;8.904;2024-02-15T03:08:31;4.90;;;1.95;;
60488;SDS011;46331;49.252;8.904;2024-02-15T03:09:12;4.30;;;1.90;;
60488;SDS011;46331;49.252;8.904;2024-02-15T03:09:54;5.57;;;2.03;;
60488;SDS011;46331;49.252;8.904;2024-02-15T03:10:35;5.22;;;2.20;;
60488;SDS011;46331;49.252;8.904;2024-02-15T03:11:15;5.73;;;2.00;;
60488;SDS011;46331;49.252;8.904;2024-02-15T03:11:56;4.93;;;1.97;;
60488;SDS011;46331;49.252;8.904;2024-02-15T03:12:37;5.97;;;2.10;;
60488;SDS011;46331;49.252;8.904;2024-02-15T03:13:18;4.88;;;2.00;;
60488;SDS011;46331;49.252;8.904;2024-02-15T03:14:01;5.20;;;1.90;;
60488;SDS011;46331;49.252;8.904;2024-02-15T03:14:44;7.15;;;2.05;;
60488;SDS011;46331;49.252;8.904;2024-02-15T03:15:25;4.97;;;1.80;;
60488;SDS011;46331;49.252;8.904;2024-02-15T03:16:06;4.93;;;2.00;;
60488;SDS011;46331;49.252;8.904;2024-02-15T03:16:47;5.40;;;2.13;;
60488;SDS011;46331;49.252;8.904;2024-02-15T03:17:27;6.20;;;2.07;;
60488;SDS011;46331;49.252;8.904;2024-02-15T03:18:08;4.45;;;2.00;;
60488;SDS011;46331;49.252;8.904;2024-02-15T03:18:48;4.83;;;1.97;;
60488;SDS011;46331;49.252;8.904;2024-02-15T03:19:29;5.10;;;1.80;;
60488;SDS011;46331;49.252;8.904;2024-02-15T03:20:11;5.00;;;2.10;;
60488;SDS011;46331;49.252;8.904;2024-02-15T03:21:00;4.67;;;2.13;;
60488;SDS011;46331;49.252;8.904;2024-02-15T03:21:40;4.80;;;1.73;;
60488;SDS011;46331;49.252;8.904;2024-02-15T03:22:27;5.75;;;2.17;;
60488;SDS011;46331;49.252;8.904;2024-02-15T03:23:09;7.38;;;2.88;;
60488;SDS011;46331;49.252;8.904;2024-02-15T03:23:51;6.63;;;3.00;;
60488;SDS011;46331;49.252;8.904;2024-02-15T03:24:31;9.33;;;3.30;;
60488;SDS011;46331;49.252;8.904;2024-02-15T03:25:12;9.10;;;3.97;;
60488;SDS011;46331;49.252;8.904;2024-02-15T03:25:52;8.67;;;3.57;;
60488;SDS011;46331;49.252;8.904;2024-02-15T03:26:34;7.45;;;3.38;;
60488;SDS011;46331;49.252;8.904;2024-02-15T03:27:18;7.93;;;3.10;;
60488;SDS011;46331;49.252;8.904;2024-02-15T03:28:03;6.22;;;2.75;;
60488;SDS011;46331;49.252;8.904;2024-02-15T03:28:43;6.30;;;2.80;;
60488;SDS011;46331;49.252;8.904;2024-02-15T03:29:24;8.43;;;3.10;;
60488;SDS011;46331;49.252;8.904;2024-02-15T03:30:05;7.80;;;2.72;;
60488;SDS011;46331;49.252;8.904;2024-02-15T03:30:46;5.85;;;2.40;;
60488;SDS011;46331;49.252;8.904;2024-02-15T03:31:27;5.47;;;2.37;;
60488;SDS011;46331;49.252;8.904;2024-02-15T03:32:07;7.28;;;2.13;;
60488;SDS011;46331;49.252;8.904;2024-02-15T03:32:50;5.22;;;2.08;;
60488;SDS011;46331;49.252;8.904;2024-02-15T03:33:33;5.07;;;2.10;;
60488;SDS011;46331;49.252;8.904;2024-02-15T03:34:15;4.43;;;1.95;;
60488;SDS011;46331;49.252;8.904;2024-02-15T03:34:55;5.53;;;2.00;;
60488;SDS011;46331;49.252;8.904;2024-02-15T03:35:36;6.18;;;1.95;;
60488;SDS011;46331;49.252;8.904;2024-02-15T03:36:18;4.23;;;1.77;;
60488;SDS011;46331;49.252;8.904;2024-02-15T03:37:00;5.68;;;1.90;;
60488;SDS011;46331;49.252;8.904;2024-02-15T03:37:43;5.72;;;1.73;;
60488;SDS011;46331;49.252;8.904;2024-02-15T03:38:25;7.60;;;2.05;;
60488;SDS011;46331;49.252;8.904;2024-02-15T03:39:07;5.45;;;1.90;;
60488;SDS011;46331;49.252;8.904;2024-02-15T03:39:48;10.00;;;2.17;;
60488;SDS011;46331;49.252;8.904;2024-02-15T03:40:28;8.33;;;2.23;;
60488;SDS011;46331;49.252;8.904;2024-02-15T03:41:10;6.05;;;2.10;;
60488;SDS011;46331;49.252;8.904;2024-02-15T03:41:51;4.53;;;1.88;;
60488;SDS011;46331;49.252;8.904;2024-02-15T03:42:31;5.43;;;1.90;;
60488;SDS011;46331;49.252;8.904;2024-02-15T03:43:12;5.30;;;2.07;;
60488;SDS011;46331;49.252;8.904;2024-02-15T03:43:53;5.37;;;2.00;;
60488;SDS011;46331;49.252;8.904;2024-02-15T03:44:33;10.98;;;2.45;;
60488;SDS011;46331;49.252;8.904;2024-02-15T03:45:14;9.73;;;2.27;;
60488;SDS011;46331;49.252;8.904;2024-02-15T03:45:54;6.63;;;1.95;;
60488;SDS011;46331;49.252;8.904;2024-02-15T03:46:35;5.03;;;2.20;;
60488;SDS011;46331;49.252;8.904;2024-02-15T03:47:16;5.88;;;2.47;;
60488;SDS011;46331;49.252;8.904;2024-02-15T03:47:56;5.67;;;2.30;;
60488;SDS011;46331;49.252;8.904;2024-02-15T03:48:37;5.88;;;2.20;;
60488;SDS011;46331;49.252;8.904;2024-02-15T03:49:17;5.80;;;2.27;;
60488;SDS011;46331;49.252;8.904;2024-02-15T03:49:58;5.18;;;2.10;;
60488;SDS011;46331;49.252;8.904;2024-02-15T03:50:52;5.13;;;2.03;;
60488;SDS011;46331;49.252;8.904;2024-02-15T03:51:34;5.15;;;1.90;;
60488;SDS011;46331;49.252;8.904;2024-02-15T03:52:14;6.45;;;2.00;;
60488;SDS011;46331;49.252;8.904;2024-02-15T03:52:55;5.87;;;2.20;;
60488;SDS011;46331;49.252;8.904;2024-02-15T03:53:36;7.40;;;3.10;;
60488;SDS011;46331;49.252;8.904;2024-02-15T03:54:17;6.67;;;3.00;;
60488;SDS011;46331;49.252;8.904;2024-02-15T03:54:58;7.95;;;3.00;;
60488;SDS011;46331;49.252;8.904;2024-02-15T03:55:39;7.63;;;2.67;;
60488;SDS011;46331;49.252;8.904;2024-02-15T03:56:20;6.30;;;2.67;;
60488;SDS011;46331;49.252;8.904;2024-02-15T03:57:03;5.75;;;2.85;;
60488;SDS011;46331;49.252;8.904;2024-02-15T03:57:44;5.90;;;3.10;;
60488;SDS011;46331;49.252;8.904;2024-02-15T03:58:29;6.18;;;2.50;;
60488;SDS011;46331;49.252;8.904;2024-02-15T03:59:13;5.28;;;2.58;;
60488;SDS011;46331;49.252;8.904;2024-02-15T03:59:53;5.20;;;2.03;;
60488;SDS011;46331;49.252;8.904;2024-02-15T04:00:36;5.43;;;2.25;;
60488;SDS011;46331;49.252;8.904;2024-02-15T04:01:19;8.10;;;2.13;;
60488;SDS011;46331;49.252;8.904;2024-02-15T04:01:59;4.57;;;2.10;;
60488;SDS011;46331;49.252;8.904;2024-02-15T04:02:41;6.97;;;2.20;;
60488;SDS011;46331;49.252;8.904;2024-02-15T04:03:21;6.27;;;2.00;;
60488;SDS011;46331;49.252;8.904;2024-02-15T04:04:02;6.63;;;2.30;;
60488;SDS011;46331;49.252;8.904;2024-02-15T04:04:43;5.47;;;2.10;;
60488;SDS011;46331;49.252;8.904;2024-02-15T04:05:27;5.13;;;2.00;;
60488;SDS011;46331;49.252;8.904;2024-02-15T04:06:07;4.70;;;1.98;;
60488;SDS011;46331;49.252;8.904;2024-02-15T04:06:49;5.63;;;2.08;;
60488;SDS011;46331;49.252;8.904;2024-02-15T04:07:31;5.32;;;2.30;;
60488;SDS011;46331;49.252;8.904;2024-02-15T04:08:12;5.28;;;2.00;;
60488;SDS011;46331;49.252;8.904;2024-02-15T04:08:53;5.90;;;1.97;;
60488;SDS011;46331;49.252;8.904;2024-02-15T04:09:33;5.03;;;2.10;;
60488;SDS011;46331;49.252;8.904;2024-02-15T04:10:15;5.50;;;2.15;;